createdAt,value
2018-05-01T00:00:25.331Z,11.10
2018-05-01T00:02:34.333Z,11.16
2018-05-01T00:03:36.334Z,11.14
2018-05-01T00:05:35.435Z,11.14
2018-05-01T00:06:35.346Z,11.16
2018-05-01T00:07:35.685Z,11.03
2018-05-01T00:08:35.700Z,11.07
2018-05-01T00:09:35.664Z,11.11
2018-05-01T00:10:36.219Z,11.10
2018-05-01T00:11:36.261Z,11.06
2018-05-01T00:12:36.241Z,11.10
2018-05-01T00:13:36.229Z,10.99
2018-05-01T00:14:35.705Z,11.07
2018-05-01T00:15:35.705Z,11.02
2018-05-01T00:16:35.714Z,11.02
2018-05-01T00:17:36.200Z,11.01
2018-05-01T00:18:35.842Z,10.98
2018-05-01T00:19:35.752Z,11.01
2018-05-01T00:20:35.516Z,10.99
2018-05-01T00:21:35.928Z,11.11
2018-05-01T00:22:36.283Z,11.01
2018-05-01T00:24:04.599Z,11.02
2018-05-01T00:25:30.640Z,11.03
2018-05-01T00:26:30.622Z,11.11
2018-05-01T00:28:53.587Z,11.17
2018-05-01T00:31:06.200Z,11.01
2018-05-01T00:32:06.232Z,10.95
2018-05-01T00:34:25.793Z,11.03
2018-05-01T00:35:17.105Z,10.98
2018-05-01T00:37:14.519Z,11.02
2018-05-01T00:38:12.528Z,11.02
2018-05-01T00:40:48.459Z,10.99
2018-05-01T00:41:26.204Z,10.95
2018-05-01T00:43:47.598Z,11.06
2018-05-01T00:44:27.693Z,11.06
2018-05-01T00:45:27.709Z,11.09
2018-05-01T00:46:47.636Z,11.09
2018-05-01T00:48:36.857Z,11.03
2018-05-01T00:49:36.825Z,11.06
2018-05-01T00:50:36.848Z,11.02
2018-05-01T00:51:37.624Z,11.01
2018-05-01T00:52:36.833Z,10.99
2018-05-01T00:53:39.634Z,10.92
2018-05-01T00:54:36.897Z,10.92
2018-05-01T00:55:39.645Z,10.95
2018-05-01T00:56:39.657Z,10.89
2018-05-01T00:57:39.565Z,10.94
2018-05-01T01:00:27.065Z,10.99
2018-05-01T01:05:39.145Z,11.13
2018-05-01T01:06:39.130Z,11.10
2018-05-01T01:07:39.966Z,11.02
2018-05-01T01:08:39.965Z,11.13
2018-05-01T01:09:39.147Z,11.02
2018-05-01T01:10:39.215Z,11.03
2018-05-01T01:11:39.121Z,10.95
2018-05-01T01:12:39.107Z,10.92
2018-05-01T01:13:39.108Z,10.99
2018-05-01T01:14:39.147Z,10.88
2018-05-01T01:15:39.152Z,10.88
2018-05-01T01:16:39.167Z,10.83
2018-05-01T01:17:39.102Z,10.88
2018-05-01T01:18:39.158Z,10.88
2018-05-01T01:19:39.104Z,10.86
2018-05-01T01:20:39.110Z,10.86
2018-05-01T01:21:39.096Z,10.84
2018-05-01T01:22:39.142Z,10.80
2018-05-01T01:23:39.216Z,10.81
2018-05-01T01:24:39.171Z,10.77
2018-05-01T01:25:39.241Z,10.78
2018-05-01T01:26:39.153Z,10.74
2018-05-01T01:27:39.157Z,10.71
2018-05-01T01:28:39.234Z,10.71
2018-05-01T01:29:39.974Z,10.71
2018-05-01T01:30:39.152Z,10.62
2018-05-01T01:31:39.085Z,10.65
2018-05-01T01:32:39.121Z,10.65
2018-05-01T01:33:39.088Z,10.58
2018-05-01T01:34:39.140Z,10.56
2018-05-01T01:35:39.214Z,10.59
2018-05-01T01:36:39.100Z,10.47
2018-05-01T01:37:39.088Z,10.55
2018-05-01T01:38:39.119Z,10.58
2018-05-01T01:39:40.167Z,10.46
2018-05-01T01:40:39.082Z,10.47
2018-05-01T01:41:41.347Z,10.52
2018-05-01T01:42:40.065Z,10.51
2018-05-01T01:43:40.073Z,10.44
2018-05-01T01:44:39.184Z,10.51
2018-05-01T01:45:39.184Z,10.42
2018-05-01T01:48:17.283Z,10.43
2018-05-01T01:49:15.458Z,10.33
2018-05-01T01:50:15.456Z,10.33
2018-05-01T01:51:15.461Z,10.32
2018-05-01T01:52:15.457Z,10.25
2018-05-01T01:53:15.474Z,10.32
2018-05-01T01:54:15.464Z,10.34
2018-05-01T01:55:15.464Z,10.32
2018-05-01T01:56:15.447Z,10.34
2018-05-01T01:57:15.447Z,10.37
2018-05-01T01:59:47.293Z,10.36
2018-05-01T02:00:46.346Z,10.36
2018-05-01T02:01:46.357Z,10.33
2018-05-01T02:02:46.353Z,10.24
2018-05-01T02:03:47.309Z,10.21
2018-05-01T02:04:48.265Z,10.32
2018-05-01T02:05:46.441Z,10.21
2018-05-01T02:06:47.337Z,10.15
2018-05-01T02:07:46.371Z,10.28
2018-05-01T02:08:46.335Z,10.17
2018-05-01T02:09:47.242Z,10.22
2018-05-01T02:10:46.399Z,10.17
2018-05-01T02:11:46.329Z,10.18
2018-05-01T02:12:46.355Z,10.12
2018-05-01T02:13:47.298Z,10.28
2018-05-01T02:14:48.681Z,10.15
2018-05-01T02:15:46.361Z,10.14
2018-05-01T02:16:46.370Z,10.09
2018-05-01T02:17:46.376Z,10.18
2018-05-01T02:18:46.319Z,10.04
2018-05-01T02:19:46.358Z,10.07
2018-05-01T02:20:46.432Z,10.10
2018-05-01T02:21:47.184Z,10.12
2018-05-01T02:22:46.316Z,10.07
2018-05-01T02:23:46.361Z,10.06
2018-05-01T02:24:46.391Z,10.00
2018-05-01T02:25:46.303Z,10.04
2018-05-01T02:26:47.320Z,10.01
2018-05-01T02:27:46.435Z,10.06
2018-05-01T02:28:46.351Z,10.07
2018-05-01T02:29:46.347Z,10.06
2018-05-01T02:30:46.302Z,9.99
2018-05-01T02:31:46.297Z,9.91
2018-05-01T02:32:46.348Z,9.85
2018-05-01T02:33:47.202Z,9.79
2018-05-01T02:34:46.351Z,9.81
2018-05-01T02:35:46.288Z,9.83
2018-05-01T02:36:46.482Z,9.83
2018-05-01T02:37:46.498Z,9.81
2018-05-01T02:38:51.618Z,9.86
2018-05-01T02:39:48.185Z,9.81
2018-05-01T02:41:09.542Z,9.83
2018-05-01T02:41:46.566Z,9.83
2018-05-01T02:43:01.332Z,9.83
2018-05-01T02:43:46.312Z,9.70
2018-05-01T02:45:00.257Z,9.75
2018-05-01T02:46:42.721Z,9.75
2018-05-01T02:47:42.169Z,9.78
2018-05-01T02:49:37.599Z,9.78
2018-05-01T02:50:37.662Z,9.81
2018-05-01T02:52:44.558Z,9.78
2018-05-01T02:53:44.534Z,9.70
2018-05-01T02:55:43.456Z,9.78
2018-05-01T02:56:43.410Z,9.79
2018-05-01T02:59:14.493Z,9.64
2018-05-01T03:00:14.500Z,9.67
2018-05-01T03:02:31.974Z,9.63
2018-05-01T03:03:18.946Z,9.60
2018-05-01T03:04:18.922Z,9.73
2018-05-01T03:05:18.897Z,9.68
2018-05-01T03:06:18.894Z,9.66
2018-05-01T03:07:18.901Z,9.68
2018-05-01T03:08:18.919Z,9.64
2018-05-01T03:09:33.966Z,9.67
2018-05-01T03:11:38.888Z,9.66
2018-05-01T03:14:23.659Z,9.70
2018-05-01T03:16:52.738Z,9.61
2018-05-01T03:23:47.112Z,9.57
2018-05-01T03:26:57.911Z,9.52
2018-05-01T03:27:35.507Z,9.50
2018-05-01T03:29:52.037Z,9.63
2018-05-01T03:30:57.557Z,9.60
2018-05-01T03:32:38.313Z,9.52
2018-05-01T03:33:37.783Z,9.56
2018-05-01T03:35:32.321Z,9.53
2018-05-01T03:36:32.314Z,9.53
2018-05-01T03:38:32.279Z,9.58
2018-05-01T03:39:32.211Z,9.52
2018-05-01T03:40:32.684Z,9.53
2018-05-01T03:41:32.698Z,9.52
2018-05-01T03:42:32.735Z,9.50
2018-05-01T03:43:33.746Z,9.48
2018-05-01T03:45:59.755Z,9.52
2018-05-01T03:46:59.721Z,9.50
2018-05-01T03:47:59.738Z,9.52
2018-05-01T03:48:59.713Z,9.48
2018-05-01T03:49:59.712Z,9.56
2018-05-01T03:50:59.709Z,9.43
2018-05-01T03:51:59.704Z,9.52
2018-05-01T03:53:08.369Z,9.53
2018-05-01T03:54:56.675Z,9.43
2018-05-01T03:56:10.869Z,9.45
2018-05-01T03:57:50.987Z,9.42
2018-05-01T03:58:50.986Z,9.39
2018-05-01T04:00:56.495Z,9.45
2018-05-01T04:03:28.120Z,9.52
2018-05-01T04:04:28.018Z,9.53
2018-05-01T04:05:37.853Z,9.53
2018-05-01T04:06:28.038Z,9.45
2018-05-01T04:07:46.621Z,9.43
2018-05-01T04:09:37.457Z,9.48
2018-05-01T04:14:01.367Z,9.42
2018-05-01T04:14:48.879Z,9.43
2018-05-01T04:15:48.855Z,9.38
2018-05-01T04:16:48.848Z,9.30
2018-05-01T04:17:48.845Z,9.35
2018-05-01T04:18:48.889Z,9.28
2018-05-01T04:19:48.900Z,9.25
2018-05-01T04:20:48.903Z,9.27
2018-05-01T04:21:48.835Z,9.27
2018-05-01T04:22:48.836Z,9.23
2018-05-01T04:23:48.832Z,9.24
2018-05-01T04:24:48.836Z,9.25
2018-05-01T04:25:48.852Z,9.10
2018-05-01T04:26:48.823Z,9.13
2018-05-01T04:27:48.821Z,9.15
2018-05-01T04:28:48.824Z,9.06
2018-05-01T04:29:48.818Z,9.15
2018-05-01T04:30:48.815Z,9.13
2018-05-01T04:31:48.817Z,9.18
2018-05-01T04:32:48.812Z,9.15
2018-05-01T04:33:48.807Z,9.15
2018-05-01T04:34:48.806Z,9.10
2018-05-01T04:35:48.806Z,9.06
2018-05-01T04:36:48.802Z,9.16
2018-05-01T04:37:48.799Z,9.16
2018-05-01T04:38:48.796Z,9.12
2018-05-01T04:39:48.794Z,9.04
2018-05-01T04:40:48.792Z,9.13
2018-05-01T04:41:48.790Z,9.09
2018-05-01T04:42:49.300Z,9.10
2018-05-01T04:43:49.306Z,9.01
2018-05-01T04:44:48.802Z,9.02
2018-05-01T04:45:48.781Z,9.04
2018-05-01T04:46:48.779Z,9.01
2018-05-01T04:47:48.778Z,8.91
2018-05-01T04:48:48.773Z,8.93
2018-05-01T04:49:48.772Z,8.86
2018-05-01T04:50:48.769Z,8.78
2018-05-01T04:51:48.798Z,8.75
2018-05-01T04:52:48.764Z,8.73
2018-05-01T04:53:48.761Z,8.73
2018-05-01T04:54:48.758Z,8.72
2018-05-01T04:55:48.764Z,8.66
2018-05-01T04:56:48.756Z,8.62
2018-05-01T04:57:48.756Z,8.53
2018-05-01T04:58:48.764Z,8.60
2018-05-01T04:59:49.305Z,8.47
2018-05-01T05:00:48.776Z,8.47
2018-05-01T05:01:48.756Z,8.37
2018-05-01T05:02:48.764Z,8.42
2018-05-01T05:03:48.739Z,8.37
2018-05-01T05:04:48.734Z,8.33
2018-05-01T05:05:48.737Z,8.25
2018-05-01T05:06:48.734Z,8.30
2018-05-01T05:07:48.727Z,8.29
2018-05-01T05:08:48.727Z,8.26
2018-05-01T05:09:48.768Z,8.14
2018-05-01T05:10:48.728Z,8.17
2018-05-01T05:11:48.721Z,8.15
2018-05-01T05:12:48.722Z,8.11
2018-05-01T05:13:48.717Z,8.03
2018-05-01T05:14:48.733Z,8.02
2018-05-01T05:15:48.727Z,8.03
2018-05-01T05:16:48.712Z,8.07
2018-05-01T05:17:48.704Z,8.07
2018-05-01T05:18:48.698Z,8.00
2018-05-01T05:19:48.721Z,8.07
2018-05-01T05:20:48.733Z,8.00
2018-05-01T05:21:48.756Z,8.02
2018-05-01T05:22:48.689Z,7.94
2018-05-01T05:23:48.694Z,7.89
2018-05-01T05:24:48.706Z,7.84
2018-05-01T05:25:48.679Z,7.87
2018-05-01T05:26:48.679Z,7.82
2018-05-01T05:27:48.679Z,7.82
2018-05-01T05:28:48.669Z,7.81
2018-05-01T05:29:48.699Z,7.78
2018-05-01T05:30:48.668Z,7.77
2018-05-01T05:31:48.677Z,7.74
2018-05-01T05:32:48.666Z,7.78
2018-05-01T05:33:49.309Z,7.77
2018-05-01T05:34:48.658Z,7.79
2018-05-01T05:35:48.646Z,7.78
2018-05-01T05:36:48.643Z,7.79
2018-05-01T05:37:48.651Z,7.89
2018-05-01T05:38:48.636Z,7.96
2018-05-01T05:39:48.639Z,7.96
2018-05-01T05:40:48.635Z,8.04
2018-05-01T05:41:48.654Z,8.03
2018-05-01T05:42:48.694Z,8.12
2018-05-01T05:43:48.658Z,8.07
2018-05-01T05:44:48.631Z,8.14
2018-05-01T05:45:48.648Z,8.10
2018-05-01T05:46:48.642Z,8.07
2018-05-01T05:47:48.683Z,8.08
2018-05-01T05:48:48.660Z,8.02
2018-05-01T05:49:49.310Z,8.12
2018-05-01T05:50:48.618Z,8.39
2018-05-01T05:51:48.600Z,8.69
2018-05-01T05:52:49.315Z,8.78
2018-05-01T05:53:48.613Z,9.20
2018-05-01T05:54:49.305Z,9.24
2018-05-01T05:55:48.619Z,9.49
2018-05-01T05:56:48.587Z,9.83
2018-05-01T05:57:48.595Z,10.32
2018-05-01T05:58:48.622Z,10.55
2018-05-01T05:59:48.577Z,10.47
2018-05-01T06:00:48.612Z,10.42
2018-05-01T06:01:48.585Z,10.58
2018-05-01T06:02:48.572Z,10.63
2018-05-01T06:03:48.567Z,10.65
2018-05-01T06:04:48.573Z,10.42
2018-05-01T06:05:48.567Z,10.52
2018-05-01T06:06:48.560Z,10.59
2018-05-01T06:07:48.563Z,10.84
2018-05-01T06:08:48.557Z,10.91
2018-05-01T06:09:49.319Z,10.88
2018-05-01T06:10:48.558Z,10.73
2018-05-01T06:11:48.549Z,10.60
2018-05-01T06:12:48.549Z,10.55
2018-05-01T06:13:48.582Z,10.53
2018-05-01T06:14:48.550Z,10.89
2018-05-01T06:15:48.547Z,11.03
2018-05-01T06:16:48.549Z,11.07
2018-05-01T06:17:48.547Z,10.92
2018-05-01T06:18:48.548Z,11.50
2018-05-01T06:19:48.541Z,11.52
2018-05-01T06:20:48.540Z,11.71
2018-05-01T06:21:48.569Z,11.21
2018-05-01T06:22:48.538Z,11.82
2018-05-01T06:23:48.540Z,11.83
2018-05-01T06:24:48.538Z,11.97
2018-05-01T06:25:48.538Z,11.86
2018-05-01T06:26:48.538Z,11.67
2018-05-01T06:27:49.310Z,11.85
2018-05-01T06:28:48.536Z,11.46
2018-05-01T06:29:48.556Z,11.21
2018-05-01T06:30:48.541Z,11.32
2018-05-01T06:31:48.534Z,11.61
2018-05-01T06:32:48.569Z,11.74
2018-05-01T06:33:49.312Z,12.39
2018-05-01T06:34:48.535Z,12.33
2018-05-01T06:35:48.561Z,12.21
2018-05-01T06:36:48.576Z,12.71
2018-05-01T06:37:48.534Z,12.54
2018-05-01T06:38:48.541Z,12.81
2018-05-01T06:39:48.535Z,12.95
2018-05-01T06:40:48.535Z,13.27
2018-05-01T06:41:48.536Z,12.87
2018-05-01T06:42:48.536Z,12.99
2018-05-01T06:43:48.609Z,12.48
2018-05-01T06:44:48.538Z,12.13
2018-05-01T06:45:48.541Z,12.57
2018-05-01T06:46:48.540Z,12.97
2018-05-01T06:47:48.537Z,12.77
2018-05-01T06:48:48.544Z,13.00
2018-05-01T06:49:48.544Z,13.25
2018-05-01T06:50:48.626Z,13.36
2018-05-01T06:51:48.558Z,13.32
2018-05-01T06:52:48.551Z,13.15
2018-05-01T06:53:48.555Z,13.04
2018-05-01T06:54:48.553Z,12.92
2018-05-01T06:55:48.554Z,12.30
2018-05-01T06:56:49.312Z,12.29
2018-05-01T06:57:48.572Z,13.59
2018-05-01T06:58:48.560Z,13.49
2018-05-01T06:59:48.565Z,13.84
2018-05-01T07:00:48.565Z,13.54
2018-05-01T07:01:49.313Z,12.64
2018-05-01T07:02:48.569Z,12.67
2018-05-01T07:03:48.568Z,12.79
2018-05-01T07:04:48.577Z,12.49
2018-05-01T07:05:48.598Z,12.71
2018-05-01T07:06:48.574Z,12.88
2018-05-01T07:07:48.589Z,13.00
2018-05-01T07:08:48.608Z,13.20
2018-05-01T07:09:48.593Z,13.38
2018-05-01T07:10:48.598Z,13.52
2018-05-01T07:11:48.588Z,13.52
2018-05-01T07:12:48.590Z,13.61
2018-05-01T07:13:48.615Z,13.94
2018-05-01T07:14:48.593Z,14.16
2018-05-01T07:15:48.619Z,13.76
2018-05-01T07:16:48.601Z,13.20
2018-05-01T07:17:48.605Z,13.17
2018-05-01T07:18:48.608Z,13.49
2018-05-01T07:19:48.610Z,13.61
2018-05-01T07:20:48.612Z,13.62
2018-05-01T07:21:48.615Z,14.50
2018-05-01T07:22:48.616Z,14.61
2018-05-01T07:23:48.644Z,13.84
2018-05-01T07:24:48.627Z,13.76
2018-05-01T07:25:48.631Z,13.07
2018-05-01T07:26:48.640Z,13.36
2018-05-01T07:27:48.637Z,12.77
2018-05-01T07:28:48.640Z,12.84
2018-05-01T07:29:48.647Z,12.96
2018-05-01T07:30:48.692Z,13.00
2018-05-01T07:31:48.653Z,13.00
2018-05-01T07:32:48.686Z,12.62
2018-05-01T07:33:48.661Z,12.74
2018-05-01T07:34:48.668Z,12.96
2018-05-01T07:35:48.669Z,13.22
2018-05-01T07:36:48.673Z,13.33
2018-05-01T07:37:49.320Z,12.93
2018-05-01T07:38:48.688Z,13.15
2018-05-01T07:39:48.691Z,13.56
2018-05-01T07:40:48.687Z,13.96
2018-05-01T07:41:48.725Z,14.60
2018-05-01T07:42:48.764Z,15.12
2018-05-01T07:43:49.521Z,14.87
2018-05-01T07:44:48.785Z,14.74
2018-05-01T07:45:48.712Z,15.23
2018-05-01T07:46:57.904Z,15.23
2018-05-01T07:48:43.867Z,15.57
2018-05-01T07:49:43.140Z,14.72
2018-05-01T07:50:43.176Z,13.52
2018-05-01T07:51:43.685Z,12.66
2018-05-01T07:52:43.148Z,12.31
2018-05-01T07:53:43.202Z,12.21
2018-05-01T07:54:43.179Z,12.52
2018-05-01T07:55:43.123Z,12.85
2018-05-01T07:56:43.162Z,12.15
2018-05-01T07:57:43.133Z,12.71
2018-05-01T07:58:43.168Z,13.15
2018-05-01T07:59:43.147Z,12.71
2018-05-01T08:00:43.161Z,12.89
2018-05-01T08:01:43.178Z,13.33
2018-05-01T08:02:43.201Z,13.61
2018-05-01T08:03:43.210Z,13.74
2018-05-01T08:04:43.168Z,13.62
2018-05-01T08:05:43.174Z,13.30
2018-05-01T08:06:43.179Z,13.61
2018-05-01T08:07:43.184Z,13.02
2018-05-01T08:08:43.190Z,13.22
2018-05-01T08:09:43.193Z,13.43
2018-05-01T08:10:43.199Z,13.41
2018-05-01T08:11:43.203Z,13.55
2018-05-01T08:12:43.210Z,13.11
2018-05-01T08:13:43.218Z,12.71
2018-05-01T08:14:43.273Z,12.37
2018-05-01T08:15:43.226Z,12.46
2018-05-01T08:16:43.236Z,12.92
2018-05-01T08:17:43.238Z,12.97
2018-05-01T08:18:43.264Z,12.93
2018-05-01T08:19:43.246Z,12.93
2018-05-01T08:20:43.251Z,12.96
2018-05-01T08:21:43.256Z,12.93
2018-05-01T08:22:43.262Z,12.66
2018-05-01T08:23:43.288Z,12.51
2018-05-01T08:24:43.268Z,12.62
2018-05-01T08:25:43.272Z,12.23
2018-05-01T08:26:43.277Z,12.01
2018-05-01T08:27:43.286Z,12.06
2018-05-01T08:28:43.285Z,12.23
2018-05-01T08:29:43.288Z,12.24
2018-05-01T08:30:43.292Z,12.08
2018-05-01T08:31:43.311Z,12.04
2018-05-01T08:32:43.308Z,11.86
2018-05-01T08:33:43.327Z,12.08
2018-05-01T08:34:43.304Z,12.34
2018-05-01T08:35:44.164Z,12.63
2018-05-01T08:36:43.311Z,12.84
2018-05-01T08:37:43.376Z,12.38
2018-05-01T08:38:43.354Z,12.12
2018-05-01T08:39:43.339Z,11.99
2018-05-01T08:40:43.323Z,12.24
2018-05-01T08:41:43.323Z,12.05
2018-05-01T08:42:43.327Z,12.06
2018-05-01T08:43:43.333Z,12.02
2018-05-01T08:44:43.330Z,12.24
2018-05-01T08:45:43.361Z,12.19
2018-05-01T08:46:43.355Z,12.57
2018-05-01T08:47:43.338Z,12.81
2018-05-01T08:48:43.340Z,12.84
2018-05-01T08:49:43.361Z,12.95
2018-05-01T08:50:43.370Z,12.84
2018-05-01T08:51:43.361Z,12.93
2018-05-01T08:52:43.345Z,12.87
2018-05-01T08:53:43.349Z,12.74
2018-05-01T08:54:43.352Z,12.45
2018-05-01T08:55:43.353Z,12.66
2018-05-01T08:56:43.373Z,12.31
2018-05-01T08:57:43.359Z,12.46
2018-05-01T08:58:43.359Z,12.82
2018-05-01T08:59:43.375Z,12.96
2018-05-01T09:00:43.372Z,12.44
2018-05-01T09:01:43.363Z,11.93
2018-05-01T09:02:43.365Z,12.24
2018-05-01T09:03:43.366Z,11.62
2018-05-01T09:04:43.427Z,11.67
2018-05-01T09:05:43.372Z,11.80
2018-05-01T09:06:43.374Z,11.50
2018-05-01T09:07:43.383Z,11.49
2018-05-01T09:08:43.377Z,11.71
2018-05-01T09:09:43.380Z,12.01
2018-05-01T09:10:43.379Z,12.19
2018-05-01T09:11:43.380Z,11.68
2018-05-01T09:12:43.381Z,11.72
2018-05-01T09:13:43.384Z,11.82
2018-05-01T09:14:43.388Z,12.20
2018-05-01T09:15:43.387Z,12.37
2018-05-01T09:16:43.388Z,12.31
2018-05-01T09:17:43.484Z,12.56
2018-05-01T09:18:43.391Z,12.77
2018-05-01T09:19:43.509Z,12.81
2018-05-01T09:20:43.575Z,12.79
2018-05-01T09:21:43.395Z,12.82
2018-05-01T09:22:43.396Z,13.17
2018-05-01T09:23:43.398Z,13.51
2018-05-01T09:24:43.399Z,13.74
2018-05-01T09:25:43.403Z,14.12
2018-05-01T09:26:44.112Z,14.10
2018-05-01T09:27:43.404Z,13.81
2018-05-01T09:28:43.405Z,13.99
2018-05-01T09:29:43.407Z,13.99
2018-05-01T09:30:43.410Z,14.13
2018-05-01T09:31:43.410Z,14.19
2018-05-01T09:32:43.412Z,14.01
2018-05-01T09:33:43.417Z,13.43
2018-05-01T09:34:43.418Z,13.09
2018-05-01T09:35:43.428Z,12.82
2018-05-01T09:36:43.422Z,12.89
2018-05-01T09:37:43.425Z,12.46
2018-05-01T09:38:43.428Z,12.29
2018-05-01T09:39:43.429Z,12.26
2018-05-01T09:40:43.429Z,12.01
2018-05-01T09:41:43.443Z,11.99
2018-05-01T09:42:43.460Z,11.83
2018-05-01T09:43:43.436Z,11.70
2018-05-01T09:44:43.469Z,11.62
2018-05-01T09:45:43.439Z,11.21
2018-05-01T09:46:43.444Z,11.25
2018-05-01T09:47:43.441Z,11.25
2018-05-01T09:48:43.444Z,11.16
2018-05-01T09:49:43.448Z,11.10
2018-05-01T09:50:43.449Z,11.03
2018-05-01T09:51:43.448Z,11.06
2018-05-01T09:52:43.451Z,11.11
2018-05-01T09:53:43.450Z,11.06
2018-05-01T09:54:43.453Z,11.09
2018-05-01T09:55:43.489Z,11.20
2018-05-01T09:56:43.587Z,11.28
2018-05-01T09:57:43.461Z,11.16
2018-05-01T09:58:43.457Z,11.09
2018-05-01T09:59:43.460Z,10.99
2018-05-01T10:00:43.457Z,11.09
2018-05-01T10:01:43.542Z,11.13
2018-05-01T10:02:43.462Z,11.28
2018-05-01T10:03:43.460Z,11.31
2018-05-01T10:04:43.470Z,11.41
2018-05-01T10:05:43.462Z,11.34
2018-05-01T10:06:44.119Z,11.83
2018-05-01T10:07:44.119Z,11.96
2018-05-01T10:08:43.461Z,12.11
2018-05-01T10:09:43.465Z,12.30
2018-05-01T10:10:43.465Z,12.49
2018-05-01T10:11:43.484Z,12.45
2018-05-01T10:12:43.463Z,12.52
2018-05-01T10:13:43.473Z,12.31
2018-05-01T10:14:43.468Z,12.12
2018-05-01T10:15:43.469Z,12.09
2018-05-01T10:16:43.492Z,11.65
2018-05-01T10:17:43.473Z,11.53
2018-05-01T10:18:43.513Z,11.43
2018-05-01T10:19:43.477Z,11.20
2018-05-01T10:20:43.474Z,11.07
2018-05-01T10:21:43.472Z,11.02
2018-05-01T10:22:43.487Z,11.20
2018-05-01T10:23:43.484Z,11.29
2018-05-01T10:24:43.521Z,11.29
2018-05-01T10:25:43.498Z,11.27
2018-05-01T10:26:43.479Z,11.32
2018-05-01T10:27:43.489Z,11.34
2018-05-01T10:28:44.688Z,11.38
2018-05-01T10:29:43.477Z,11.54
2018-05-01T10:30:43.476Z,11.47
2018-05-01T10:31:43.481Z,11.36
2018-05-01T10:32:43.521Z,11.46
2018-05-01T10:33:43.479Z,11.49
2018-05-01T10:34:43.512Z,11.54
2018-05-01T10:35:43.535Z,11.49
2018-05-01T10:36:43.502Z,11.47
2018-05-01T10:37:43.537Z,11.35
2018-05-01T10:38:43.566Z,11.21
2018-05-01T10:39:43.520Z,11.16
2018-05-01T10:40:43.480Z,11.10
2018-05-01T10:41:43.493Z,11.20
2018-05-01T10:42:50.666Z,10.96
2018-05-01T10:43:49.127Z,10.70
2018-05-01T10:44:43.504Z,10.68
2018-05-01T10:45:43.514Z,10.62
2018-05-01T10:46:43.502Z,10.58
2018-05-01T10:47:44.127Z,10.62
2018-05-01T10:48:52.151Z,10.63
2018-05-01T10:50:41.409Z,10.39
2018-05-01T10:51:37.857Z,10.55
2018-05-01T10:54:36.268Z,10.83
2018-05-01T10:55:36.247Z,10.98
2018-05-01T10:56:37.012Z,10.94
2018-05-01T10:57:36.205Z,10.77
2018-05-01T10:58:36.184Z,10.77
2018-05-01T10:59:36.237Z,10.71
2018-05-01T11:00:36.342Z,10.68
2018-05-01T11:01:36.185Z,10.63
2018-05-01T11:02:36.189Z,10.65
2018-05-01T11:03:36.187Z,11.06
2018-05-01T11:04:36.208Z,11.10
2018-05-01T11:05:36.207Z,11.29
2018-05-01T11:06:36.210Z,11.20
2018-05-01T11:07:36.189Z,11.19
2018-05-01T11:08:36.206Z,11.02
2018-05-01T11:09:36.192Z,10.94
2018-05-01T11:10:36.180Z,10.70
2018-05-01T11:11:36.956Z,10.78
2018-05-01T11:12:36.196Z,10.76
2018-05-01T11:13:36.195Z,11.01
2018-05-01T11:14:36.180Z,11.13
2018-05-01T11:15:37.072Z,10.98
2018-05-01T11:16:36.302Z,11.06
2018-05-01T11:17:36.236Z,10.86
2018-05-01T11:18:36.187Z,10.88
2018-05-01T11:19:36.182Z,10.88
2018-05-01T11:20:36.610Z,10.71
2018-05-01T11:21:36.175Z,10.55
2018-05-01T11:22:36.446Z,10.30
2018-05-01T11:23:36.174Z,10.17
2018-05-01T11:24:36.237Z,10.15
2018-05-01T11:25:36.174Z,10.22
2018-05-01T11:26:37.012Z,10.26
2018-05-01T11:27:36.183Z,10.14
2018-05-01T11:28:36.205Z,10.28
2018-05-01T11:29:36.172Z,10.37
2018-05-01T11:30:36.175Z,10.51
2018-05-01T11:31:36.168Z,10.62
2018-05-01T11:32:36.173Z,10.40
2018-05-01T11:33:36.213Z,10.52
2018-05-01T11:34:36.167Z,10.65
2018-05-01T11:35:36.249Z,10.74
2018-05-01T11:36:36.195Z,10.74
2018-05-01T11:37:36.175Z,10.78
2018-05-01T11:38:36.184Z,10.88
2018-05-01T11:39:36.183Z,10.96
2018-05-01T11:40:36.172Z,11.06
2018-05-01T11:41:36.163Z,11.17
2018-05-01T11:42:36.171Z,11.19
2018-05-01T11:43:36.165Z,11.43
2018-05-01T11:44:36.161Z,11.52
2018-05-01T11:45:37.309Z,11.64
2018-05-01T11:46:36.177Z,11.77
2018-05-01T11:47:36.185Z,11.89
2018-05-01T11:48:36.162Z,11.94
2018-05-01T11:49:36.362Z,11.80
2018-05-01T11:50:36.170Z,11.77
2018-05-01T11:51:36.159Z,11.74
2018-05-01T11:52:36.164Z,11.78
2018-05-01T11:53:36.159Z,11.85
2018-05-01T11:54:36.164Z,12.08
2018-05-01T11:55:36.271Z,12.09
2018-05-01T11:56:36.162Z,12.08
2018-05-01T11:57:36.967Z,11.97
2018-05-01T11:58:36.159Z,11.86
2018-05-01T11:59:36.173Z,11.86
2018-05-01T12:00:36.157Z,12.04
2018-05-01T12:01:37.136Z,12.01
2018-05-01T12:02:36.233Z,12.04
2018-05-01T12:03:36.492Z,12.15
2018-05-01T12:04:36.244Z,12.23
2018-05-01T12:05:36.165Z,12.39
2018-05-01T12:06:36.973Z,12.21
2018-05-01T12:07:37.373Z,12.15
2018-05-01T12:08:36.551Z,12.09
2018-05-01T12:09:36.280Z,12.11
2018-05-01T12:10:36.298Z,12.20
2018-05-01T12:11:36.172Z,12.34
2018-05-01T12:12:36.168Z,12.48
2018-05-01T12:13:36.172Z,12.64
2018-05-01T12:16:44.589Z,12.34
2018-05-01T12:17:44.632Z,12.49
2018-05-01T12:18:44.552Z,12.49
2018-05-01T12:19:44.558Z,12.42
2018-05-01T12:20:44.549Z,12.24
2018-05-01T12:21:44.608Z,12.13
2018-05-01T12:22:44.551Z,12.13
2018-05-01T12:23:44.615Z,12.38
2018-05-01T12:24:44.553Z,12.63
2018-05-01T12:25:44.552Z,13.12
2018-05-01T12:26:44.552Z,13.49
2018-05-01T12:27:44.612Z,13.81
2018-05-01T12:28:44.551Z,13.80
2018-05-01T12:29:44.549Z,13.71
2018-05-01T12:30:44.553Z,14.06
2018-05-01T12:31:44.554Z,13.98
2018-05-01T12:32:44.641Z,13.96
2018-05-01T12:33:44.555Z,14.04
2018-05-01T12:34:45.574Z,13.84
2018-05-01T12:35:45.109Z,13.92
2018-05-01T12:36:44.617Z,13.73
2018-05-01T12:37:44.560Z,13.55
2018-05-01T12:38:44.559Z,13.71
2018-05-01T12:39:44.559Z,13.80
2018-05-01T12:40:44.565Z,14.02
2018-05-01T12:41:44.562Z,13.98
2018-05-01T12:42:44.563Z,13.88
2018-05-01T12:43:45.079Z,14.09
2018-05-01T12:44:44.561Z,13.99
2018-05-01T12:45:44.566Z,13.92
2018-05-01T12:46:44.567Z,13.88
2018-05-01T12:47:44.576Z,13.99
2018-05-01T12:48:44.584Z,13.83
2018-05-01T12:49:44.571Z,13.65
2018-05-01T12:50:44.572Z,13.62
2018-05-01T12:51:44.570Z,13.62
2018-05-01T12:52:44.575Z,13.67
2018-05-01T12:53:44.593Z,13.49
2018-05-01T12:54:44.576Z,13.33
2018-05-01T12:55:44.577Z,13.24
2018-05-01T12:56:44.578Z,13.18
2018-05-01T12:57:44.621Z,13.14
2018-05-01T12:58:44.608Z,13.03
2018-05-01T12:59:44.650Z,13.09
2018-05-01T13:00:44.585Z,13.22
2018-05-01T13:01:44.583Z,13.32
2018-05-01T13:02:44.587Z,13.41
2018-05-01T13:03:44.585Z,13.40
2018-05-01T13:04:45.283Z,13.40
2018-05-01T13:05:44.587Z,13.37
2018-05-01T13:06:44.588Z,13.20
2018-05-01T13:07:44.604Z,13.14
2018-05-01T13:08:44.692Z,13.07
2018-05-01T13:09:44.591Z,13.17
2018-05-01T13:10:44.594Z,13.46
2018-05-01T13:11:44.592Z,13.74
2018-05-01T13:12:44.593Z,13.96
2018-05-01T13:13:44.597Z,14.31
2018-05-01T13:14:44.596Z,14.67
2018-05-01T13:15:44.596Z,14.65
2018-05-01T13:16:44.597Z,14.54
2018-05-01T13:17:44.599Z,14.14
2018-05-01T13:18:44.607Z,13.92
2018-05-01T13:19:44.599Z,13.59
2018-05-01T13:20:44.635Z,13.69
2018-05-01T13:21:45.580Z,13.79
2018-05-01T13:22:44.607Z,13.76
2018-05-01T13:23:44.729Z,13.58
2018-05-01T13:24:44.609Z,13.44
2018-05-01T13:25:46.262Z,13.54
2018-05-01T13:26:44.659Z,13.51
2018-05-01T13:27:44.674Z,13.67
2018-05-01T13:28:44.617Z,13.92
2018-05-01T13:29:46.275Z,13.99
2018-05-01T13:30:44.618Z,14.27
2018-05-01T13:31:44.724Z,14.46
2018-05-01T13:32:44.627Z,14.80
2018-05-01T13:33:44.631Z,14.67
2018-05-01T13:34:46.084Z,14.88
2018-05-01T13:35:44.620Z,15.06
2018-05-01T13:36:44.620Z,14.90
2018-05-01T13:37:44.642Z,14.61
2018-05-01T13:38:44.638Z,14.39
2018-05-01T13:39:44.783Z,13.99
2018-05-01T13:40:44.647Z,13.99
2018-05-01T13:41:44.629Z,13.88
2018-05-01T13:42:44.660Z,13.61
2018-05-01T13:43:44.631Z,13.52
2018-05-01T13:44:44.634Z,13.47
2018-05-01T13:45:44.633Z,13.33
2018-05-01T13:46:44.637Z,13.09
2018-05-01T13:47:44.644Z,12.96
2018-05-01T13:48:45.588Z,12.95
2018-05-01T13:49:45.067Z,12.95
2018-05-01T13:50:44.666Z,12.95
2018-05-01T13:51:44.647Z,12.93
2018-05-01T13:52:44.655Z,13.12
2018-05-01T13:53:44.643Z,13.32
2018-05-01T13:54:44.645Z,13.61
2018-05-01T13:55:44.643Z,13.98
2018-05-01T13:56:44.647Z,14.34
2018-05-01T13:57:44.646Z,14.60